createdAt,value
2022-08-09T00:01:52.795Z,3.60
2022-08-09T00:04:34.563Z,3.67
2022-08-09T00:07:03.704Z,3.63
2022-08-09T00:09:39.218Z,3.03
2022-08-09T00:12:06.903Z,2.89
2022-08-09T00:14:37.895Z,2.75
2022-08-09T00:17:05.900Z,2.74
2022-08-09T00:19:34.781Z,2.82
2022-08-09T00:22:04.422Z,2.72
2022-08-09T00:24:33.264Z,2.38
2022-08-09T00:27:05.659Z,2.96
2022-08-09T00:30:10.070Z,2.87
2022-08-09T00:32:27.248Z,2.91
2022-08-09T00:34:54.516Z,2.83
2022-08-09T00:37:23.953Z,2.70
2022-08-09T00:40:09.014Z,2.85
2022-08-09T00:44:10.126Z,2.93
2022-08-09T00:45:28.165Z,3.06
2022-08-09T00:47:55.467Z,2.88
2022-08-09T00:50:24.175Z,3.02
2022-08-09T00:52:51.776Z,2.43
2022-08-09T00:56:03.673Z,2.33
2022-08-09T00:58:09.626Z,2.45
2022-08-09T01:00:44.272Z,2.39
2022-08-09T01:03:18.758Z,2.39
2022-08-09T01:05:54.609Z,2.43
2022-08-09T01:08:30.886Z,2.22
2022-08-09T01:11:15.715Z,2.34
2022-08-09T01:13:59.185Z,2.63
2022-08-09T01:16:33.697Z,2.44
2022-08-09T01:19:17.034Z,2.57
2022-08-09T01:22:16.280Z,2.73
2022-08-09T01:24:58.415Z,2.71
2022-08-09T01:27:33.309Z,2.81
2022-08-09T01:30:03.821Z,2.62
2022-08-09T01:32:37.566Z,2.67
2022-08-09T01:35:28.657Z,2.38
2022-08-09T01:38:08.311Z,2.37
2022-08-09T01:40:42.439Z,2.32
2022-08-09T01:43:12.463Z,2.39
2022-08-09T01:45:44.783Z,2.23
2022-08-09T01:48:16.602Z,2.24
2022-08-09T01:50:54.999Z,2.34
2022-08-09T01:53:22.780Z,2.12
2022-08-09T01:55:52.279Z,2.14
2022-08-09T01:58:25.705Z,2.02
2022-08-09T02:00:57.607Z,2.18
2022-08-09T02:03:30.054Z,2.28
2022-08-09T02:06:06.328Z,2.33
2022-08-09T02:08:58.567Z,2.31
2022-08-09T02:11:42.851Z,2.58
2022-08-09T02:14:15.805Z,2.58
2022-08-09T02:17:14.724Z,2.71
2022-08-09T02:19:45.076Z,2.93
2022-08-09T02:22:31.521Z,2.49
2022-08-09T02:25:04.514Z,2.54
2022-08-09T02:27:43.508Z,2.84
2022-08-09T02:30:36.844Z,2.71
2022-08-09T02:33:07.769Z,2.81
2022-08-09T02:36:01.885Z,3.05
2022-08-09T02:38:32.553Z,2.65
2022-08-09T02:41:08.296Z,2.55
2022-08-09T02:43:51.804Z,2.59
2022-08-09T02:46:28.428Z,2.95
2022-08-09T02:49:01.176Z,2.70
2022-08-09T02:54:13.808Z,2.78
2022-08-09T02:56:48.852Z,2.76
2022-08-09T02:59:26.471Z,3.09
2022-08-09T03:02:12.326Z,3.04
2022-08-09T03:04:50.722Z,2.92
2022-08-09T03:07:20.502Z,3.38
2022-08-09T03:09:54.065Z,3.12
2022-08-09T03:12:25.617Z,2.74
2022-08-09T03:14:54.262Z,2.42
2022-08-09T03:17:27.103Z,2.64
2022-08-09T03:20:03.522Z,2.02
2022-08-09T03:22:41.351Z,1.84
2022-08-09T03:25:26.911Z,1.65
2022-08-09T03:27:59.895Z,1.61
2022-08-09T03:30:34.262Z,1.70
2022-08-09T03:33:13.161Z,1.50
2022-08-09T03:36:13.716Z,1.38
2022-08-09T03:38:34.451Z,1.37
2022-08-09T03:41:04.885Z,1.30
2022-08-09T03:43:33.417Z,1.16
2022-08-09T03:46:20.031Z,1.12
2022-08-09T03:48:59.094Z,1.19
2022-08-09T03:51:57.222Z,1.21
2022-08-09T03:54:29.149Z,1.03
2022-08-09T03:57:04.309Z,1.10
2022-08-09T03:59:54.982Z,1.36
2022-08-09T04:02:26.462Z,1.44
2022-08-09T04:04:59.286Z,1.50
2022-08-09T04:07:33.688Z,1.69
2022-08-09T04:10:20.398Z,1.71
2022-08-09T04:12:52.332Z,1.70
2022-08-09T04:15:40.563Z,1.90
2022-08-09T04:18:17.789Z,1.88
2022-08-09T04:20:46.827Z,1.60
2022-08-09T04:23:17.270Z,1.53
2022-08-09T04:25:49.643Z,1.27
2022-08-09T04:28:34.314Z,1.31
2022-08-09T04:31:07.705Z,1.43
2022-08-09T04:33:47.733Z,1.45
2022-08-09T04:36:21.774Z,1.40
2022-08-09T04:38:50.740Z,1.34
2022-08-09T04:41:24.036Z,1.42
2022-08-09T04:44:05.962Z,1.33
2022-08-09T04:46:57.699Z,1.15
2022-08-09T04:49:40.112Z,0.99
2022-08-09T04:52:22.052Z,1.00
2022-08-09T04:54:53.833Z,1.32
2022-08-09T04:57:25.224Z,1.41
2022-08-09T04:59:54.372Z,1.42
2022-08-09T05:02:23.363Z,1.32
2022-08-09T05:04:55.179Z,1.11
2022-08-09T05:07:29.143Z,0.96
2022-08-09T05:10:02.041Z,1.00
2022-08-09T05:12:33.252Z,0.93
2022-08-09T05:15:03.440Z,0.84
2022-08-09T05:18:38.084Z,0.97
2022-08-09T05:20:29.528Z,0.85
2022-08-09T05:23:55.655Z,0.76
2022-08-09T05:25:51.949Z,0.76
2022-08-09T05:28:23.021Z,0.67
2022-08-09T05:30:51.590Z,0.86
2022-08-09T05:33:26.442Z,0.83
2022-08-09T05:36:01.138Z,1.54
2022-08-09T05:38:35.231Z,1.26
2022-08-09T05:41:06.476Z,1.17
2022-08-09T05:43:40.637Z,1.03
2022-08-09T05:46:16.005Z,0.80
2022-08-09T05:48:42.976Z,0.75
2022-08-09T05:51:41.613Z,0.83
2022-08-09T05:53:59.635Z,0.78
2022-08-09T05:56:30.146Z,1.12
2022-08-09T05:58:58.670Z,0.89
2022-08-09T06:01:34.265Z,1.09
2022-08-09T06:04:13.629Z,0.99
2022-08-09T06:06:50.090Z,1.12
2022-08-09T06:09:40.787Z,1.06
2022-08-09T06:12:12.080Z,1.27
2022-08-09T06:14:42.936Z,1.05
2022-08-09T06:17:16.572Z,1.15
2022-08-09T06:19:46.881Z,1.10
2022-08-09T06:22:22.495Z,1.49
2022-08-09T06:25:12.442Z,1.74
2022-08-09T06:27:51.696Z,2.04
2022-08-09T06:30:22.999Z,1.90
2022-08-09T06:33:00.348Z,2.10
2022-08-09T06:35:57.002Z,2.09
2022-08-09T06:38:37.208Z,1.98
2022-08-09T06:41:12.418Z,2.33
2022-08-09T06:43:47.606Z,2.28
2022-08-09T06:46:40.269Z,2.29
2022-08-09T06:50:13.862Z,2.54
2022-08-09T06:52:45.863Z,2.71
2022-08-09T06:55:18.134Z,2.39
2022-08-09T06:58:03.117Z,2.15
2022-08-09T07:00:51.087Z,2.25
2022-08-09T07:03:28.073Z,2.04
2022-08-09T07:06:03.561Z,1.91
2022-08-09T07:08:39.792Z,1.73
2022-08-09T07:11:07.899Z,1.81
2022-08-09T07:13:45.229Z,1.72
2022-08-09T07:16:41.707Z,1.66
2022-08-09T07:19:22.968Z,1.55
2022-08-09T07:21:56.938Z,1.75
2022-08-09T07:24:32.772Z,1.94
2022-08-09T07:27:27.153Z,1.79
2022-08-09T07:30:00.301Z,1.64
2022-08-09T07:32:33.046Z,1.56
2022-08-09T07:35:10.199Z,1.62
2022-08-09T07:37:45.750Z,1.78
2022-08-09T07:40:17.041Z,1.88
2022-08-09T07:42:55.963Z,1.86
2022-08-09T07:45:39.605Z,1.88
2022-08-09T07:48:28.917Z,1.76
2022-08-09T07:51:09.527Z,1.94
2022-08-09T07:54:05.780Z,1.74
2022-08-09T07:56:38.869Z,1.73
2022-08-09T07:59:16.094Z,1.67
2022-08-09T08:02:05.091Z,1.75
2022-08-09T08:04:33.964Z,1.73
2022-08-09T08:07:15.489Z,1.79
2022-08-09T08:10:10.626Z,1.87
2022-08-09T08:12:43.547Z,1.89
2022-08-09T08:15:13.768Z,1.87
2022-08-09T08:17:54.914Z,1.80
2022-08-09T08:20:30.518Z,1.40
2022-08-09T08:23:16.267Z,1.57
2022-08-09T08:25:50.327Z,1.40
2022-08-09T08:28:25.708Z,1.32
2022-08-09T08:31:08.902Z,1.32
2022-08-09T08:33:53.505Z,1.23
2022-08-09T08:36:28.624Z,1.10
2022-08-09T08:38:56.663Z,1.09
2022-08-09T08:41:51.070Z,1.06
2022-08-09T08:44:23.068Z,1.01
2022-08-09T08:47:02.961Z,0.84
2022-08-09T08:49:48.103Z,0.87
2022-08-09T08:52:57.397Z,0.79
2022-08-09T08:55:07.552Z,0.83
2022-08-09T08:57:37.392Z,0.68
2022-08-09T09:00:16.819Z,0.69
2022-08-09T09:02:52.644Z,0.66
2022-08-09T09:05:57.763Z,0.77
2022-08-09T09:08:30.784Z,0.83
2022-08-09T09:11:02.492Z,0.71
2022-08-09T09:13:55.463Z,0.68
2022-08-09T09:16:29.806Z,0.68
2022-08-09T09:22:04.239Z,0.67
2022-08-09T09:24:34.680Z,0.59
2022-08-09T09:27:02.746Z,0.60
2022-08-09T09:30:08.521Z,0.60
2022-08-09T09:32:32.439Z,0.55
2022-08-09T09:35:07.696Z,0.59
2022-08-09T09:37:40.212Z,0.57
2022-08-09T09:40:12.328Z,0.61
2022-08-09T09:42:42.964Z,0.56
2022-08-09T09:45:26.823Z,0.49
2022-08-09T09:48:03.667Z,0.47
2022-08-09T09:50:51.076Z,0.48
2022-08-09T09:53:44.018Z,0.52
2022-08-09T09:56:20.067Z,0.55
2022-08-09T09:59:00.478Z,0.54
2022-08-09T10:01:38.213Z,0.52
2022-08-09T10:04:15.887Z,0.56
2022-08-09T10:06:52.126Z,0.58
2022-08-09T10:09:24.717Z,0.56
2022-08-09T10:12:07.636Z,1.08
2022-08-09T10:17:56.800Z,0.91
2022-08-09T10:20:35.695Z,0.71
2022-08-09T10:23:20.027Z,0.62
2022-08-09T10:26:06.308Z,0.61
2022-08-09T10:28:35.622Z,0.80
2022-08-09T10:34:10.101Z,0.58
2022-08-09T10:36:40.050Z,0.58
2022-08-09T10:39:15.499Z,0.65
2022-08-09T10:41:48.037Z,0.84
2022-08-09T10:44:18.426Z,0.75
2022-08-09T10:48:12.812Z,0.68
2022-08-09T10:50:05.526Z,0.64
2022-08-09T10:52:57.038Z,0.55
2022-08-09T10:58:00.133Z,0.48
2022-08-09T11:00:35.873Z,0.56
2022-08-09T11:03:27.820Z,0.58
2022-08-09T11:06:22.895Z,0.66
2022-08-09T11:09:15.547Z,0.59
2022-08-09T11:12:17.320Z,0.51
2022-08-09T11:14:46.094Z,0.46
2022-08-09T11:17:53.442Z,0.50
2022-08-09T11:20:45.460Z,0.45
2022-08-09T11:23:23.875Z,0.43
2022-08-09T11:25:57.390Z,0.56
2022-08-09T11:28:38.610Z,0.48
2022-08-09T11:31:48.831Z,0.57
2022-08-09T11:34:35.622Z,0.47
2022-08-09T11:37:07.333Z,0.43
2022-08-09T11:40:05.403Z,0.45
2022-08-09T11:42:46.763Z,0.49
2022-08-09T11:45:22.637Z,0.50
2022-08-09T11:47:52.387Z,0.45
2022-08-09T11:51:19.245Z,0.43
2022-08-09T11:54:00.621Z,0.42
2022-08-09T11:56:47.549Z,0.41
2022-08-09T11:59:30.144Z,0.40
2022-08-09T12:02:34.051Z,0.46
2022-08-09T12:04:57.997Z,0.52
2022-08-09T12:07:41.687Z,0.48
2022-08-09T12:10:31.896Z,0.45
2022-08-09T12:13:03.805Z,0.44
2022-08-09T12:15:52.188Z,0.41
2022-08-09T12:18:29.577Z,0.41
2022-08-09T12:20:59.067Z,0.52
2022-08-09T12:23:57.954Z,0.44
2022-08-09T12:26:19.565Z,0.42
2022-08-09T12:29:10.433Z,0.37
2022-08-09T12:32:01.690Z,0.39
2022-08-09T12:34:35.919Z,0.38
2022-08-09T12:37:09.732Z,0.35
2022-08-09T12:40:01.354Z,0.33
2022-08-09T12:42:30.740Z,0.31
2022-08-09T12:45:00.973Z,0.50
2022-08-09T12:47:37.171Z,0.45
2022-08-09T12:50:12.211Z,0.38
2022-08-09T12:52:42.978Z,0.30
2022-08-09T12:56:11.819Z,0.39
2022-08-09T12:58:24.002Z,0.47
2022-08-09T13:01:00.336Z,0.39
2022-08-09T13:03:57.025Z,0.35
2022-08-09T13:06:34.984Z,0.33
2022-08-09T13:09:15.500Z,0.42
2022-08-09T13:11:47.481Z,0.36
2022-08-09T13:14:41.697Z,0.33
2022-08-09T13:17:43.862Z,0.38
2022-08-09T13:20:09.378Z,0.44
2022-08-09T13:23:01.804Z,0.46
2022-08-09T13:25:42.016Z,0.35
2022-08-09T13:28:14.085Z,0.33
2022-08-09T13:32:15.826Z,0.31
2022-08-09T13:33:54.345Z,0.31
2022-08-09T13:36:37.334Z,0.30
2022-08-09T13:41:54.534Z,0.30
2022-08-09T13:42:02.049Z,0.30
2022-08-09T13:44:29.969Z,0.31
2022-08-09T13:47:26.963Z,0.30
2022-08-09T13:49:56.330Z,0.30
2022-08-09T13:52:29.402Z,0.30
2022-08-09T13:55:00.588Z,0.29
2022-08-09T13:57:37.412Z,0.25
2022-08-09T14:00:10.817Z,0.30
2022-08-09T14:02:42.332Z,0.30
2022-08-09T14:05:59.259Z,0.30
2022-08-09T14:08:17.417Z,0.25
2022-08-09T14:10:49.326Z,0.27
2022-08-09T14:13:21.843Z,0.28
2022-08-09T14:16:10.206Z,0.37
2022-08-09T14:18:45.963Z,0.42
2022-08-09T14:21:20.336Z,0.35
2022-08-09T14:23:55.201Z,0.32
2022-08-09T14:26:32.111Z,0.31
2022-08-09T14:29:01.481Z,0.26
2022-08-09T14:31:36.028Z,0.23
2022-08-09T14:34:31.585Z,0.22
2022-08-09T14:37:13.485Z,0.26
2022-08-09T14:39:46.938Z,0.23
2022-08-09T14:42:28.783Z,0.26
2022-08-09T14:46:39.991Z,0.28
2022-08-09T14:47:58.685Z,0.32
2022-08-09T14:50:28.789Z,0.31
2022-08-09T14:52:57.602Z,0.26
2022-08-09T14:55:24.982Z,0.23
2022-08-09T14:57:52.335Z,0.22
2022-08-09T15:00:21.452Z,0.21
2022-08-09T15:02:52.097Z,0.49
2022-08-09T15:05:20.153Z,0.35
2022-08-09T15:07:54.822Z,0.28
2022-08-09T15:10:29.364Z,0.29
2022-08-09T15:13:03.027Z,0.26
2022-08-09T15:15:34.514Z,0.23
2022-08-09T15:18:08.268Z,0.22
2022-08-09T15:21:58.699Z,0.26
2022-08-09T15:24:03.599Z,0.23
2022-08-09T15:26:31.069Z,0.22
2022-08-09T15:29:04.231Z,0.23
2022-08-09T15:31:41.491Z,0.22
2022-08-09T15:34:33.505Z,0.21
2022-08-09T15:37:04.315Z,0.22
2022-08-09T15:39:49.959Z,0.26
2022-08-09T15:42:22.278Z,0.26
2022-08-09T15:44:49.793Z,0.28
2022-08-09T15:47:22.482Z,0.27
2022-08-09T15:50:04.209Z,0.28
2022-08-09T15:52:33.588Z,0.38
2022-08-09T15:55:01.468Z,0.33
2022-08-09T15:57:43.991Z,0.27
2022-08-09T16:00:14.903Z,0.28
2022-08-09T16:02:48.122Z,0.24
2022-08-09T16:05:25.585Z,0.27
2022-08-09T16:07:52.676Z,0.33
2022-08-09T16:10:56.006Z,0.32
2022-08-09T16:13:18.997Z,0.26
2022-08-09T16:16:10.256Z,0.24
2022-08-09T16:18:45.822Z,0.27
2022-08-09T16:21:16.906Z,0.28
2022-08-09T16:23:50.925Z,0.26
2022-08-09T16:26:34.484Z,0.29
2022-08-09T16:29:11.022Z,0.34
2022-08-09T16:32:17.853Z,0.31
2022-08-09T16:34:54.798Z,0.30
2022-08-09T16:37:19.169Z,0.30
2022-08-09T16:39:48.154Z,0.30
2022-08-09T16:42:35.398Z,0.34
2022-08-09T16:45:05.620Z,0.32
2022-08-09T16:48:40.748Z,0.31
2022-08-09T16:50:29.161Z,0.31
2022-08-09T16:53:01.890Z,0.31
2022-08-09T16:55:44.160Z,0.30
2022-08-09T16:58:22.575Z,0.42
2022-08-09T17:00:52.606Z,0.32
2022-08-09T17:03:22.846Z,0.31
2022-08-09T17:06:07.578Z,0.31
2022-08-09T17:08:45.726Z,0.38
2022-08-09T17:11:41.234Z,0.33
2022-08-09T17:14:25.880Z,0.32
2022-08-09T17:17:25.935Z,0.31
2022-08-09T17:20:29.706Z,0.30
2022-08-09T17:22:50.324Z,0.30
2022-08-09T17:25:22.290Z,0.31
2022-08-09T17:27:54.613Z,0.31
2022-08-09T17:30:25.985Z,0.30
2022-08-09T17:33:00.695Z,0.35
2022-08-09T17:38:34.141Z,0.58
2022-08-09T17:41:05.848Z,0.48
2022-08-09T17:43:37.034Z,0.40
2022-08-09T17:46:07.650Z,0.40
2022-08-09T17:48:52.309Z,0.36
2022-08-09T17:51:23.127Z,0.33
2022-08-09T17:53:53.424Z,0.39
2022-08-09T17:56:27.444Z,0.39
2022-08-09T17:58:58.562Z,0.39
2022-08-09T18:02:03.314Z,0.35
2022-08-09T18:04:15.616Z,0.33
2022-08-09T18:06:49.760Z,0.31
2022-08-09T18:09:40.078Z,0.31
2022-08-09T18:12:19.867Z,0.30
2022-08-09T18:14:55.050Z,0.35
2022-08-09T18:18:03.338Z,0.40
2022-08-09T18:21:00.490Z,0.51
2022-08-09T18:24:11.629Z,0.55
2022-08-09T18:26:04.937Z,0.48
2022-08-09T18:30:41.836Z,0.44
2022-08-09T18:31:24.871Z,0.58
2022-08-09T18:34:06.067Z,0.49
2022-08-09T18:36:36.421Z,0.45
2022-08-09T18:39:05.510Z,0.40
2022-08-09T18:41:35.007Z,0.41
2022-08-09T18:44:31.895Z,0.41
2022-08-09T18:47:15.053Z,0.40
2022-08-09T18:49:47.442Z,0.56
2022-08-09T18:52:24.974Z,0.48
2022-08-09T18:55:02.770Z,0.44
2022-08-09T18:57:42.756Z,0.47
2022-08-09T19:00:20.319Z,0.44
2022-08-09T19:02:54.270Z,0.42
2022-08-09T19:05:49.074Z,0.46
2022-08-09T19:08:19.851Z,0.40
2022-08-09T19:10:50.771Z,0.33
2022-08-09T19:13:38.254Z,0.32
2022-08-09T19:16:20.878Z,0.31
2022-08-09T19:18:50.737Z,0.44
2022-08-09T19:21:21.593Z,0.37
2022-08-09T19:24:33.463Z,0.34
2022-08-09T19:26:57.920Z,0.27
2022-08-09T19:29:24.888Z,0.24
2022-08-09T19:31:51.871Z,0.25
2022-08-09T19:34:22.860Z,0.23
2022-08-09T19:36:53.534Z,0.21
2022-08-09T19:39:43.944Z,0.25
2022-08-09T19:42:14.456Z,0.28
2022-08-09T19:44:42.903Z,0.35
2022-08-09T19:47:11.257Z,0.39
2022-08-09T19:50:09.025Z,0.43
2022-08-09T19:52:26.657Z,0.37
2022-08-09T19:54:55.261Z,0.29
2022-08-09T19:57:25.703Z,0.40
2022-08-09T20:00:00.001Z,0.39
2022-08-09T20:04:11.438Z,0.35
2022-08-09T20:05:23.688Z,0.32
2022-08-09T20:10:36.813Z,0.26
2022-08-09T20:13:06.505Z,0.28
2022-08-09T20:16:33.264Z,0.45
2022-08-09T20:18:28.167Z,0.38
2022-08-09T20:20:56.470Z,0.46
2022-08-09T20:23:38.619Z,0.44
2022-08-09T20:26:09.435Z,0.37
2022-08-09T20:28:48.651Z,0.30
2022-08-09T20:31:17.221Z,0.29
2022-08-09T20:33:45.653Z,0.30
2022-08-09T20:36:12.905Z,0.26
2022-08-09T20:41:35.133Z,0.29
2022-08-09T20:44:06.874Z,0.29
2022-08-09T20:46:42.923Z,0.30
2022-08-09T20:51:42.192Z,0.35
2022-08-09T20:54:12.696Z,0.36
2022-08-09T20:59:50.157Z,0.38
2022-08-09T21:02:09.986Z,0.34
2022-08-09T21:05:52.882Z,0.34
2022-08-09T21:07:38.479Z,0.50
2022-08-09T21:10:08.326Z,0.46
2022-08-09T21:12:38.679Z,0.39
2022-08-09T21:15:12.522Z,0.40
2022-08-09T21:18:22.979Z,0.40
2022-08-09T21:20:30.079Z,0.40
2022-08-09T21:22:59.711Z,0.51
2022-08-09T21:25:28.237Z,0.46
2022-08-09T21:28:12.253Z,0.38
2022-08-09T21:30:45.907Z,0.39
2022-08-09T21:33:21.843Z,0.40
2022-08-09T21:35:52.772Z,0.40
2022-08-09T21:38:31.010Z,0.40
2022-08-09T21:41:00.646Z,0.57
2022-08-09T21:43:56.026Z,0.62
2022-08-09T21:46:18.492Z,0.60
2022-08-09T21:48:49.480Z,0.60
2022-08-09T21:51:35.749Z,0.64
2022-08-09T21:54:05.782Z,0.55
2022-08-09T21:56:44.942Z,0.56
2022-08-09T21:59:25.683Z,0.50
2022-08-09T22:02:00.279Z,0.58
2022-08-09T22:04:55.037Z,0.50
2022-08-09T22:07:23.411Z,0.47
2022-08-09T22:10:05.962Z,0.51
2022-08-09T22:12:33.302Z,0.46
2022-08-09T22:15:05.703Z,0.58
2022-08-09T22:17:37.614Z,0.54
2022-08-09T22:20:17.108Z,0.59
2022-08-09T22:22:50.659Z,0.59
2022-08-09T22:26:05.461Z,0.55
2022-08-09T22:28:10.870Z,0.65
2022-08-09T22:30:48.668Z,0.59
2022-08-09T22:33:17.209Z,0.59
2022-08-09T22:36:01.682Z,0.60
2022-08-09T22:38:30.438Z,0.54
2022-08-09T22:41:00.655Z,0.48
2022-08-09T22:44:02.276Z,0.44
2022-08-09T22:48:14.950Z,0.44
2022-08-09T22:49:10.280Z,0.42
2022-08-09T22:51:49.797Z,0.53
2022-08-09T22:54:26.865Z,0.47
2022-08-09T22:56:56.638Z,0.51
2022-08-09T22:59:55.833Z,0.57
2022-08-09T23:02:23.717Z,0.49
2022-08-09T23:04:54.092Z,0.45
2022-08-09T23:07:31.143Z,0.41
2022-08-09T23:10:11.944Z,0.50
2022-08-09T23:12:43.227Z,0.45
2022-08-09T23:15:13.439Z,0.51
2022-08-09T23:17:45.440Z,0.44
2022-08-09T23:20:12.519Z,0.50
2022-08-09T23:22:41.300Z,0.60
2022-08-09T23:25:10.105Z,0.50
2022-08-09T23:28:11.686Z,0.45
2022-08-09T23:30:30.958Z,0.43
2022-08-09T23:33:08.883Z,0.41
2022-08-09T23:36:05.028Z,0.46
2022-08-09T23:38:33.143Z,0.65
2022-08-09T23:41:02.858Z,0.49
2022-08-09T23:43:34.945Z,0.54
2022-08-09T23:46:02.100Z,0.48
2022-08-09T23:48:30.497Z,0.45
2022-08-09T23:50:57.440Z,0.43
2022-08-09T23:53:25.628Z,0.42
2022-08-09T23:56:03.507Z,0.40
2022-08-09T23:58:36.939Z,0.35
